createdAt,value
2022-11-13T00:01:23.250Z,8.40
2022-11-13T00:03:50.820Z,8.40
2022-11-13T00:06:19.508Z,8.30
2022-11-13T00:08:48.132Z,8.30
2022-11-13T00:11:19.620Z,8.30
2022-11-13T00:13:48.838Z,8.30
2022-11-13T00:16:21.847Z,8.30
2022-11-13T00:18:49.781Z,8.30
2022-11-13T00:21:23.092Z,8.30
2022-11-13T00:23:51.844Z,8.20
2022-11-13T00:26:26.020Z,8.30
2022-11-13T00:28:55.796Z,8.30
2022-11-13T00:31:23.938Z,8.20
2022-11-13T00:36:39.346Z,8.20
2022-11-13T00:39:06.792Z,8.20
2022-11-13T00:41:34.544Z,8.30
2022-11-13T00:44:04.176Z,8.20
2022-11-13T00:46:31.926Z,8.20
2022-11-13T00:48:59.331Z,8.20
2022-11-13T00:51:26.887Z,8.10
2022-11-13T00:53:54.309Z,8.10
2022-11-13T00:56:21.747Z,8.10
2022-11-13T00:58:49.267Z,8.00
2022-11-13T01:01:20.066Z,8.00
2022-11-13T01:03:47.563Z,8.10
2022-11-13T01:06:22.509Z,8.00
2022-11-13T01:08:50.852Z,7.90
2022-11-13T01:11:22.142Z,7.90
2022-11-13T01:13:51.534Z,7.90
2022-11-13T01:16:25.578Z,7.90
2022-11-13T01:18:55.632Z,7.90
2022-11-13T01:21:27.467Z,7.90
2022-11-13T01:23:56.397Z,7.80
2022-11-13T01:26:27.989Z,7.80
2022-11-13T01:28:57.488Z,7.80
2022-11-13T01:31:29.848Z,7.80
2022-11-13T01:33:58.305Z,7.80
2022-11-13T01:36:28.876Z,7.80
2022-11-13T01:38:56.794Z,7.80
2022-11-13T01:41:33.944Z,7.80
2022-11-13T01:44:02.147Z,7.80
2022-11-13T01:46:35.673Z,7.80
2022-11-13T01:49:12.158Z,7.60
2022-11-13T01:52:01.379Z,7.60
2022-11-13T01:54:36.121Z,7.60
2022-11-13T01:57:05.111Z,7.50
2022-11-13T01:59:40.555Z,7.50
2022-11-13T02:02:08.554Z,7.50
2022-11-13T02:04:37.032Z,7.60
2022-11-13T02:07:09.240Z,7.50
2022-11-13T02:09:44.248Z,7.50
2022-11-13T02:12:16.756Z,7.50
2022-11-13T02:14:53.031Z,7.40
2022-11-13T02:17:43.552Z,7.40
2022-11-13T02:20:11.555Z,7.40
2022-11-13T02:22:47.656Z,7.40
2022-11-13T02:25:15.896Z,7.40
2022-11-13T02:27:50.954Z,7.40
2022-11-13T02:30:27.116Z,7.40
2022-11-13T02:32:57.065Z,7.50
2022-11-13T02:35:34.395Z,7.40
2022-11-13T02:38:05.748Z,7.50
2022-11-13T02:40:34.552Z,7.40
2022-11-13T02:43:01.982Z,7.30
2022-11-13T02:45:29.386Z,7.30
2022-11-13T02:47:57.241Z,7.30
2022-11-13T02:50:24.628Z,7.40
2022-11-13T02:52:52.145Z,7.40
2022-11-13T02:55:19.887Z,7.40
2022-11-13T02:57:47.374Z,7.30
2022-11-13T03:00:15.499Z,7.30
2022-11-13T03:02:42.882Z,7.40
2022-11-13T03:05:12.416Z,7.40
2022-11-13T03:07:41.559Z,7.40
2022-11-13T03:10:11.165Z,7.40
2022-11-13T03:12:39.346Z,7.40
2022-11-13T03:15:08.994Z,7.40
2022-11-13T03:17:36.732Z,7.40
2022-11-13T03:20:06.113Z,7.40
2022-11-13T03:22:33.499Z,7.40
2022-11-13T03:25:02.865Z,7.40
2022-11-13T03:27:33.438Z,7.40
2022-11-13T03:30:00.935Z,7.40
2022-11-13T03:32:28.361Z,7.40
2022-11-13T03:34:55.881Z,7.40
2022-11-13T03:37:23.391Z,7.40
2022-11-13T03:39:50.923Z,7.40
2022-11-13T03:42:18.395Z,7.40
2022-11-13T03:44:45.861Z,7.40
2022-11-13T03:47:13.297Z,7.30
2022-11-13T03:49:40.689Z,7.20
2022-11-13T03:52:08.234Z,7.30
2022-11-13T03:54:35.772Z,7.30
2022-11-13T03:57:03.285Z,7.40
2022-11-13T03:59:30.695Z,7.40
2022-11-13T04:01:58.139Z,7.40
2022-11-13T04:04:25.687Z,7.40
2022-11-13T04:06:53.175Z,7.30
2022-11-13T04:09:20.582Z,7.40
2022-11-13T04:11:48.007Z,7.40
2022-11-13T04:14:15.594Z,7.30
2022-11-13T04:16:43.003Z,7.30
2022-11-13T04:19:10.436Z,7.30
2022-11-13T04:21:37.858Z,7.40
2022-11-13T04:24:05.650Z,7.40
2022-11-13T04:26:33.042Z,7.30
2022-11-13T04:29:00.419Z,7.40
2022-11-13T04:31:27.944Z,7.40
2022-11-13T04:33:55.411Z,7.30
2022-11-13T04:36:22.839Z,7.20
2022-11-13T04:38:50.263Z,7.20
2022-11-13T04:41:56.219Z,7.30
2022-11-13T04:44:23.674Z,7.30
2022-11-13T04:46:51.104Z,7.30
2022-11-13T04:49:18.475Z,7.30
2022-11-13T04:51:45.913Z,7.20
2022-11-13T04:54:13.346Z,7.10
2022-11-13T04:56:40.824Z,7.10
2022-11-13T04:59:08.320Z,7.10
2022-11-13T05:01:36.720Z,7.10
2022-11-13T05:04:04.778Z,7.20
2022-11-13T05:06:32.608Z,7.20
2022-11-13T05:09:00.002Z,7.10
2022-11-13T05:11:27.372Z,7.10
2022-11-13T05:13:58.320Z,7.20
2022-11-13T05:16:28.208Z,7.10
2022-11-13T05:18:55.647Z,7.10
2022-11-13T05:21:23.092Z,7.10
2022-11-13T05:23:50.625Z,7.10
2022-11-13T05:26:18.298Z,7.10
2022-11-13T05:28:45.723Z,7.00
2022-11-13T05:31:16.331Z,7.10
2022-11-13T05:33:44.632Z,7.10
2022-11-13T05:36:14.833Z,7.10
2022-11-13T05:38:42.767Z,7.10
2022-11-13T05:41:21.779Z,7.10
2022-11-13T05:43:51.753Z,7.20
2022-11-13T05:46:29.256Z,7.20
2022-11-13T05:49:02.381Z,7.10
2022-11-13T05:51:33.608Z,7.10
2022-11-13T05:54:02.254Z,7.10
2022-11-13T05:56:34.905Z,7.10
2022-11-13T05:59:03.953Z,7.10
2022-11-13T06:01:37.833Z,7.10
2022-11-13T06:04:07.367Z,7.10
2022-11-13T06:06:35.611Z,7.10
2022-11-13T06:09:06.462Z,7.20
2022-11-13T06:11:34.157Z,7.10
2022-11-13T06:14:02.084Z,7.10
2022-11-13T06:16:38.501Z,7.10
2022-11-13T06:19:10.086Z,7.10
2022-11-13T06:21:40.755Z,7.10
2022-11-13T06:24:11.975Z,7.10
2022-11-13T06:26:39.668Z,7.20
2022-11-13T06:29:09.998Z,7.20
2022-11-13T06:31:37.883Z,7.20
2022-11-13T06:34:06.295Z,7.20
2022-11-13T06:36:36.916Z,7.20
2022-11-13T06:39:09.770Z,7.10
2022-11-13T06:41:39.575Z,7.20
2022-11-13T06:44:07.251Z,7.20
2022-11-13T06:46:34.764Z,7.20
2022-11-13T06:49:02.340Z,7.30
2022-11-13T06:51:31.577Z,7.30
2022-11-13T06:53:59.163Z,7.30
2022-11-13T06:56:27.477Z,7.30
2022-11-13T06:58:56.453Z,7.40
2022-11-13T07:01:25.986Z,7.40
2022-11-13T07:03:54.497Z,7.40
2022-11-13T07:06:24.240Z,7.50
2022-11-13T07:08:52.168Z,7.50
2022-11-13T07:11:22.620Z,7.50
2022-11-13T07:13:50.887Z,7.50
2022-11-13T07:16:18.646Z,7.70
2022-11-13T07:18:54.149Z,7.80
2022-11-13T07:21:22.918Z,7.80
2022-11-13T07:23:51.355Z,7.70
2022-11-13T07:26:19.636Z,7.80
2022-11-13T07:28:48.479Z,7.80
2022-11-13T07:31:17.832Z,7.90
2022-11-13T07:33:48.358Z,8.00
2022-11-13T07:36:16.183Z,8.10
2022-11-13T07:38:43.702Z,8.00
2022-11-13T07:41:11.190Z,8.00
2022-11-13T07:43:38.638Z,8.00
2022-11-13T07:46:06.803Z,7.90
2022-11-13T07:48:34.206Z,7.90
2022-11-13T07:51:03.209Z,7.80
2022-11-13T07:53:31.302Z,7.80
2022-11-13T07:56:04.306Z,7.80
2022-11-13T07:58:32.110Z,7.90
2022-11-13T08:01:07.063Z,7.90
2022-11-13T08:03:34.663Z,8.00
2022-11-13T08:06:05.805Z,7.80
2022-11-13T08:08:33.936Z,7.80
2022-11-13T08:11:10.253Z,7.90
2022-11-13T08:13:38.623Z,7.80
2022-11-13T08:16:06.925Z,8.00
2022-11-13T08:18:34.616Z,8.10
2022-11-13T08:21:04.626Z,8.20
2022-11-13T08:23:32.841Z,8.40
2022-11-13T08:26:05.889Z,8.60
2022-11-13T08:28:34.217Z,8.60
2022-11-13T08:31:02.597Z,8.70
2022-11-13T08:33:30.580Z,8.70
2022-11-13T08:36:00.212Z,8.80
2022-11-13T08:38:28.391Z,8.70
2022-11-13T08:41:08.893Z,8.70
2022-11-13T08:43:36.936Z,8.70
2022-11-13T08:46:04.697Z,8.40
2022-11-13T08:48:32.360Z,8.50
2022-11-13T08:50:59.861Z,8.70
2022-11-13T08:53:27.903Z,8.80
2022-11-13T08:55:55.317Z,8.90
2022-11-13T08:58:22.791Z,9.00
2022-11-13T09:00:50.235Z,9.00
2022-11-13T09:03:17.675Z,9.00
2022-11-13T09:05:45.103Z,9.10
2022-11-13T09:08:12.764Z,8.80
2022-11-13T09:10:40.188Z,8.80
2022-11-13T09:13:09.046Z,8.80
2022-11-13T09:15:39.548Z,8.70
2022-11-13T09:18:07.177Z,9.00
2022-11-13T09:20:35.051Z,9.00
2022-11-13T09:23:09.443Z,9.00
2022-11-13T09:25:38.288Z,9.20
2022-11-13T09:28:07.431Z,9.00
2022-11-13T09:30:35.187Z,9.00
2022-11-13T09:33:02.816Z,9.10
2022-11-13T09:35:34.925Z,9.10
2022-11-13T09:38:11.249Z,8.90
2022-11-13T09:40:58.964Z,9.20
2022-11-13T09:43:38.975Z,9.40
2022-11-13T09:46:19.622Z,9.40
2022-11-13T09:49:27.633Z,9.50
2022-11-13T09:52:02.651Z,9.10
2022-11-13T09:54:33.712Z,9.10
2022-11-13T09:57:26.359Z,9.40
2022-11-13T10:00:17.941Z,9.30
2022-11-13T10:03:39.529Z,9.30
2022-11-13T10:06:37.629Z,9.50
2022-11-13T10:09:40.433Z,9.90
2022-11-13T10:12:09.265Z,9.80
2022-11-13T10:14:47.985Z,9.60
2022-11-13T10:17:27.340Z,9.60
2022-11-13T10:20:05.464Z,9.50
2022-11-13T10:23:07.323Z,9.50
2022-11-13T10:25:38.299Z,9.40
2022-11-13T10:31:19.323Z,9.20
2022-11-13T10:33:46.788Z,9.50
2022-11-13T10:36:43.074Z,9.60
2022-11-13T10:39:11.087Z,10.10
2022-11-13T10:41:53.369Z,10.60
2022-11-13T10:44:33.352Z,10.50
2022-11-13T10:47:42.428Z,10.50
2022-11-13T10:50:26.851Z,10.30
2022-11-13T10:52:56.316Z,10.00
2022-11-13T10:55:32.454Z,9.50
2022-11-13T10:58:03.788Z,9.50
2022-11-13T11:00:36.051Z,9.70
2022-11-13T11:03:03.485Z,9.70
2022-11-13T11:05:30.880Z,9.90
2022-11-13T11:07:58.738Z,10.10
2022-11-13T11:10:34.417Z,10.00
2022-11-13T11:13:12.907Z,10.10
2022-11-13T11:15:51.402Z,9.90
2022-11-13T11:18:24.396Z,9.80
2022-11-13T11:20:58.017Z,9.40
2022-11-13T11:23:43.770Z,9.60
2022-11-13T11:26:39.033Z,9.60
2022-11-13T11:29:26.306Z,10.00
2022-11-13T11:32:27.248Z,10.40
2022-11-13T11:35:13.548Z,10.80
2022-11-13T11:37:57.759Z,11.00
2022-11-13T11:40:41.718Z,10.90
2022-11-13T11:43:41.819Z,10.70
2022-11-13T11:46:13.963Z,10.40
2022-11-13T11:48:41.841Z,10.10
2022-11-13T11:51:32.623Z,9.90
2022-11-13T11:54:43.998Z,9.60
2022-11-13T11:57:56.614Z,9.60
2022-11-13T12:00:24.848Z,9.70
2022-11-13T12:03:16.430Z,9.80
2022-11-13T12:06:18.843Z,9.90
2022-11-13T12:09:20.179Z,9.50
2022-11-13T12:12:33.816Z,9.30
2022-11-13T12:15:19.610Z,9.10
2022-11-13T12:18:09.267Z,8.90
2022-11-13T12:21:09.299Z,8.80
2022-11-13T12:24:23.749Z,8.50
2022-11-13T12:27:05.413Z,8.60
2022-11-13T12:29:58.398Z,8.80
2022-11-13T12:33:00.711Z,9.00
2022-11-13T12:35:29.858Z,9.30
2022-11-13T12:38:07.737Z,9.60
2022-11-13T12:41:07.817Z,9.80
2022-11-13T12:43:40.885Z,9.80
2022-11-13T12:46:13.394Z,9.80
2022-11-13T12:48:44.202Z,9.80
2022-11-13T12:51:17.742Z,9.70
2022-11-13T12:53:54.347Z,9.60
2022-11-13T12:56:24.646Z,9.30
2022-11-13T12:59:29.347Z,9.10
2022-11-13T13:02:09.182Z,8.70
2022-11-13T13:05:19.245Z,8.70
2022-11-13T13:08:20.444Z,8.80
2022-11-13T13:10:59.597Z,8.90
2022-11-13T13:13:52.212Z,8.90
2022-11-13T13:16:27.113Z,8.90
2022-11-13T13:19:23.439Z,8.90
2022-11-13T13:21:50.872Z,8.70
2022-11-13T13:24:36.913Z,8.60
2022-11-13T13:27:27.542Z,8.50
2022-11-13T13:29:55.320Z,8.40
2022-11-13T13:33:01.543Z,8.20
2022-11-13T13:36:09.165Z,7.90
2022-11-13T13:38:57.884Z,7.70
2022-11-13T13:41:36.503Z,7.60
2022-11-13T13:44:06.720Z,7.50
2022-11-13T13:46:35.300Z,7.50
2022-11-13T13:49:09.609Z,7.60
2022-11-13T13:51:52.071Z,7.50
2022-11-13T13:54:33.164Z,7.50
2022-11-13T13:57:01.987Z,7.60
2022-11-13T13:59:37.684Z,7.80
2022-11-13T14:02:25.453Z,8.00
2022-11-13T14:04:54.972Z,8.40
2022-11-13T14:07:29.282Z,8.80
2022-11-13T14:10:22.168Z,9.30
2022-11-13T14:12:49.739Z,9.60
2022-11-13T14:15:34.780Z,9.70
2022-11-13T14:18:17.614Z,9.70
2022-11-13T14:21:21.337Z,9.80
2022-11-13T14:23:52.050Z,9.70
2022-11-13T14:26:21.002Z,9.70
2022-11-13T14:28:53.528Z,9.40
2022-11-13T14:31:30.432Z,9.00
2022-11-13T14:34:10.817Z,8.60
2022-11-13T14:36:40.974Z,8.30
2022-11-13T14:39:24.752Z,8.20
2022-11-13T14:41:59.620Z,8.10
2022-11-13T14:44:35.194Z,7.90
2022-11-13T14:47:24.572Z,7.70
2022-11-13T14:49:52.045Z,7.50
2022-11-13T14:52:29.069Z,7.20
2022-11-13T14:55:15.356Z,7.00
2022-11-13T14:57:50.335Z,6.80
2022-11-13T15:00:25.915Z,6.60
2022-11-13T15:02:53.347Z,6.50
2022-11-13T15:05:20.825Z,6.30
2022-11-13T15:07:48.446Z,6.20
2022-11-13T15:10:22.056Z,6.10
2022-11-13T15:12:49.890Z,6.00
2022-11-13T15:15:25.930Z,5.90
2022-11-13T15:17:54.107Z,5.70
2022-11-13T15:20:28.336Z,5.60
2022-11-13T15:22:57.584Z,5.60
2022-11-13T15:25:26.104Z,5.70
2022-11-13T15:27:53.649Z,5.60
2022-11-13T15:30:21.726Z,5.70
2022-11-13T15:32:53.979Z,5.60
2022-11-13T15:35:21.892Z,5.40
2022-11-13T15:37:49.399Z,5.40
2022-11-13T15:40:17.975Z,5.20
2022-11-13T15:42:45.736Z,5.20
2022-11-13T15:45:17.320Z,5.10
2022-11-13T15:47:44.797Z,5.00
2022-11-13T15:50:14.958Z,4.90
2022-11-13T15:52:46.809Z,4.80
2022-11-13T15:55:30.001Z,4.90
2022-11-13T15:57:58.654Z,4.80
2022-11-13T16:00:28.599Z,4.70
2022-11-13T16:02:58.049Z,4.60
2022-11-13T16:05:29.541Z,4.60
2022-11-13T16:07:57.837Z,4.50
2022-11-13T16:10:25.792Z,4.50
2022-11-13T16:12:53.835Z,4.40
2022-11-13T16:15:21.869Z,4.40
2022-11-13T16:17:56.336Z,4.40
2022-11-13T16:20:24.224Z,4.40
2022-11-13T16:22:52.038Z,4.40
2022-11-13T16:25:21.836Z,4.30
2022-11-13T16:27:49.293Z,4.40
2022-11-13T16:30:23.462Z,4.40
2022-11-13T16:32:50.947Z,4.40
2022-11-13T16:35:20.775Z,4.30
2022-11-13T16:37:48.291Z,4.20
2022-11-13T16:40:24.344Z,4.20
2022-11-13T16:42:52.070Z,4.30
2022-11-13T16:45:20.989Z,4.30
2022-11-13T16:47:50.821Z,4.30
2022-11-13T16:50:25.333Z,4.30
2022-11-13T16:52:53.187Z,4.20
2022-11-13T16:55:20.573Z,4.20
2022-11-13T16:57:48.291Z,4.20
2022-11-13T17:00:19.505Z,4.20
2022-11-13T17:02:49.916Z,4.30
2022-11-13T17:05:18.248Z,4.20
2022-11-13T17:07:45.971Z,4.20
2022-11-13T17:10:30.984Z,4.10
2022-11-13T17:13:00.199Z,4.10
2022-11-13T17:15:27.788Z,4.00
2022-11-13T17:18:00.353Z,4.10
2022-11-13T17:20:27.922Z,4.20
2022-11-13T17:22:55.363Z,4.30
2022-11-13T17:25:26.719Z,4.70
2022-11-13T17:27:54.457Z,4.80
2022-11-13T17:30:22.145Z,4.90
2022-11-13T17:32:49.604Z,5.00
2022-11-13T17:35:17.132Z,5.00
2022-11-13T17:37:44.582Z,4.90
2022-11-13T17:40:12.505Z,4.90
2022-11-13T17:42:41.292Z,4.80
2022-11-13T17:45:09.396Z,4.70
2022-11-13T17:47:36.750Z,4.60
2022-11-13T17:50:07.581Z,4.60
2022-11-13T17:52:35.299Z,4.40
2022-11-13T17:55:06.393Z,4.40
2022-11-13T17:57:34.108Z,4.60
2022-11-13T18:00:01.637Z,4.70
2022-11-13T18:02:29.049Z,4.60
2022-11-13T18:04:59.280Z,4.30
2022-11-13T18:07:27.349Z,4.10
2022-11-13T18:09:54.815Z,4.20
2022-11-13T18:12:22.226Z,4.30
2022-11-13T18:14:52.678Z,4.40
2022-11-13T18:17:22.369Z,4.60
2022-11-13T18:19:51.117Z,4.70
2022-11-13T18:22:18.737Z,4.60
2022-11-13T18:24:46.228Z,4.60
2022-11-13T18:27:14.456Z,4.70
2022-11-13T18:29:41.845Z,4.70
2022-11-13T18:32:09.227Z,4.60
2022-11-13T18:34:36.749Z,4.70
2022-11-13T18:37:04.196Z,4.50
2022-11-13T18:39:31.623Z,4.40
2022-11-13T18:42:00.485Z,4.20
2022-11-13T18:44:27.894Z,4.20
2022-11-13T18:46:55.368Z,4.10
2022-11-13T18:49:22.908Z,4.10
2022-11-13T18:51:50.457Z,4.20
2022-11-13T18:54:17.950Z,4.50
2022-11-13T18:56:45.344Z,4.60
2022-11-13T18:59:12.764Z,4.60
2022-11-13T19:01:40.349Z,4.50
2022-11-13T19:04:27.677Z,4.40
2022-11-13T19:06:55.201Z,4.30
2022-11-13T19:09:22.579Z,4.40
2022-11-13T19:11:51.434Z,4.50
2022-11-13T19:14:19.644Z,4.60
2022-11-13T19:16:47.042Z,4.70
2022-11-13T19:19:23.601Z,4.80
2022-11-13T19:21:51.436Z,4.90
2022-11-13T19:24:19.044Z,4.90
2022-11-13T19:26:46.592Z,5.00
2022-11-13T19:29:14.108Z,4.90
2022-11-13T19:31:41.624Z,4.80
2022-11-13T19:34:10.400Z,4.70
2022-11-13T19:36:37.845Z,4.60
2022-11-13T19:39:05.539Z,4.70
2022-11-13T19:41:33.395Z,4.80
2022-11-13T19:44:00.852Z,4.80
2022-11-13T19:46:32.122Z,4.90
2022-11-13T19:48:59.912Z,4.70
2022-11-13T19:51:27.767Z,4.50
2022-11-13T19:53:59.005Z,4.40
2022-11-13T19:56:28.700Z,4.20
2022-11-13T19:58:57.124Z,4.20
2022-11-13T20:01:27.637Z,4.10
2022-11-13T20:04:02.139Z,4.00
2022-11-13T20:06:32.238Z,4.00
2022-11-13T20:09:01.396Z,4.00
2022-11-13T20:11:29.112Z,3.90
2022-11-13T20:13:57.432Z,3.80
2022-11-13T20:16:26.008Z,3.80
2022-11-13T20:18:57.903Z,3.90
2022-11-13T20:21:27.375Z,4.00
2022-11-13T20:23:57.450Z,4.00
2022-11-13T20:26:25.640Z,3.90
2022-11-13T20:28:53.131Z,3.90
2022-11-13T20:31:23.608Z,3.80
2022-11-13T20:33:52.854Z,3.70
2022-11-13T20:36:21.153Z,3.70
2022-11-13T20:38:54.717Z,3.60
2022-11-13T20:41:24.186Z,3.50
2022-11-13T20:43:52.996Z,3.50
2022-11-13T20:46:21.493Z,3.40
2022-11-13T20:48:49.653Z,3.40
2022-11-13T20:51:21.124Z,3.30
2022-11-13T20:53:49.319Z,3.20
2022-11-13T20:56:19.541Z,3.20
2022-11-13T20:58:47.540Z,3.20
2022-11-13T21:01:18.463Z,3.10
2022-11-13T21:03:46.960Z,3.10
2022-11-13T21:06:18.779Z,3.20
2022-11-13T21:08:47.116Z,3.10
2022-11-13T21:11:25.494Z,3.10
2022-11-13T21:13:55.494Z,3.10
2022-11-13T21:16:23.628Z,3.00
2022-11-13T21:18:51.508Z,3.00
2022-11-13T21:21:26.283Z,2.90
2022-11-13T21:23:56.820Z,2.90
2022-11-13T21:26:24.591Z,2.90
2022-11-13T21:28:56.988Z,2.90
2022-11-13T21:31:24.462Z,2.90
2022-11-13T21:33:52.690Z,3.30
2022-11-13T21:36:26.433Z,3.30
2022-11-13T21:38:55.958Z,3.30
2022-11-13T21:41:25.253Z,3.40
2022-11-13T21:43:59.520Z,3.50
2022-11-13T21:46:32.200Z,3.40
2022-11-13T21:49:05.849Z,3.40
2022-11-13T21:51:36.013Z,3.30
2022-11-13T21:54:04.449Z,3.30
2022-11-13T21:56:34.606Z,3.30
2022-11-13T21:59:02.508Z,3.30
2022-11-13T22:01:37.580Z,3.30
2022-11-13T22:04:06.520Z,3.30
2022-11-13T22:06:39.916Z,3.40
2022-11-13T22:09:16.309Z,3.50
2022-11-13T22:11:44.561Z,3.60
2022-11-13T22:14:11.996Z,3.60
2022-11-13T22:16:43.355Z,3.50
2022-11-13T22:19:15.167Z,3.50
2022-11-13T22:21:43.561Z,3.60
2022-11-13T22:24:12.459Z,3.60
2022-11-13T22:26:45.509Z,3.70
2022-11-13T22:29:12.990Z,3.90
2022-11-13T22:31:41.090Z,4.00
2022-11-13T22:34:08.495Z,4.00
2022-11-13T22:36:37.480Z,4.10
2022-11-13T22:39:06.190Z,4.10
2022-11-13T22:41:36.474Z,4.10
2022-11-13T22:44:07.784Z,4.20
2022-11-13T22:46:36.640Z,4.20
2022-11-13T22:49:06.516Z,4.20
2022-11-13T22:51:41.759Z,4.20
2022-11-13T22:54:12.172Z,4.20
2022-11-13T22:56:41.175Z,4.20
2022-11-13T22:59:11.681Z,4.20
2022-11-13T23:01:41.325Z,4.20
2022-11-13T23:04:13.418Z,4.10
2022-11-13T23:06:41.764Z,4.10
2022-11-13T23:09:09.609Z,4.10
2022-11-13T23:11:40.385Z,4.10
2022-11-13T23:14:12.322Z,4.00
2022-11-13T23:16:40.039Z,4.10
2022-11-13T23:19:07.843Z,4.10
2022-11-13T23:21:35.386Z,4.10
2022-11-13T23:24:02.967Z,4.10
2022-11-13T23:26:30.884Z,4.10
2022-11-13T23:28:58.382Z,4.10
2022-11-13T23:31:25.811Z,4.00
2022-11-13T23:33:53.308Z,4.00
2022-11-13T23:36:20.812Z,4.00
2022-11-13T23:38:48.220Z,3.90
2022-11-13T23:41:15.643Z,4.00
2022-11-13T23:46:30.432Z,3.90
2022-11-13T23:48:57.915Z,4.00
2022-11-13T23:51:25.335Z,4.00
2022-11-13T23:53:52.767Z,3.90
2022-11-13T23:56:20.165Z,3.90
2022-11-13T23:58:47.634Z,4.00
